Time;durP1;ratioP1;P1;durP2;ratioP2;P2;SDS_P1;SDS_P2;PMS_P1;PMS_P2;Temp;Humidity;BMP_temperature;BMP_pressure;BME280_temperature;BME280_humidity;BME280_pressure;Samples;Min_cycle;Max_cycle;Signal;HPM_P1;HPM_P2
2022/01/19 00:00:29;;;;;;;0.55;0.50;;;18.20;45.80;;;;;;4945541;29;20513;-44
2022/01/19 00:02:57;;;;;;;1.25;0.60;;;18.20;45.80;;;;;;4943668;28;20054;-43
2022/01/19 00:05:25;;;;;;;0.30;0.20;;;18.20;45.90;;;;;;4948108;28;20061;-44
2022/01/19 00:07:52;;;;;;;0.60;0.45;;;18.20;45.80;;;;;;4947281;28;20098;-41
2022/01/19 00:10:26;;;;;;;1.58;0.40;;;18.20;45.90;;;;;;4947163;28;20051;-45
2022/01/19 00:12:54;;;;;;;1.20;0.68;;;18.20;45.80;;;;;;4950211;28;20508;-46
2022/01/19 00:15:21;;;;;;;1.88;0.40;;;18.20;45.80;;;;;;4950184;28;20049;-45
2022/01/19 00:17:48;;;;;;;1.00;0.28;;;18.20;45.90;;;;;;4948730;28;20412;-43
2022/01/19 00:20:17;;;;;;;1.23;0.50;;;18.20;45.90;;;;;;4948930;28;20047;-47
2022/01/19 00:22:44;;;;;;;0.80;0.35;;;18.20;45.90;;;;;;4948300;28;20045;-45
2022/01/19 00:25:11;;;;;;;1.60;0.30;;;18.20;45.90;;;;;;4949006;28;20040;-42
2022/01/19 00:27:38;;;;;;;2.30;0.60;;;18.20;45.90;;;;;;4949522;29;20051;-45
2022/01/19 00:30:07;;;;;;;1.20;0.32;;;18.20;45.90;;;;;;4949028;28;20043;-44
2022/01/19 00:32:34;;;;;;;1.65;0.40;;;18.20;45.90;;;;;;4948733;28;20039;-47
2022/01/19 00:35:02;;;;;;;5.18;0.63;;;18.20;45.90;;;;;;4931451;29;20074;-43
2022/01/19 00:37:31;;;;;;;2.50;0.50;;;18.20;45.90;;;;;;4949109;28;20043;-45
2022/01/19 00:39:58;;;;;;;0.40;0.20;;;18.20;45.80;;;;;;4949248;28;20050;-43
2022/01/19 00:42:25;;;;;;;0.47;0.25;;;18.20;45.90;;;;;;4949779;28;20502;-42
2022/01/19 00:44:53;;;;;;;0.45;0.45;;;18.20;45.80;;;;;;4948331;28;20040;-44
2022/01/19 00:47:20;;;;;;;2.92;0.45;;;18.20;45.90;;;;;;4948810;28;20036;-46
2022/01/19 00:49:48;;;;;;;0.35;0.20;;;18.20;45.90;;;;;;4947893;28;20051;-44
2022/01/19 00:52:15;;;;;;;0.57;0.50;;;18.20;45.90;;;;;;4948793;28;20570;-45
2022/01/19 00:54:44;;;;;;;0.40;0.10;;;18.20;45.90;;;;;;4950696;29;20126;-43
2022/01/19 00:57:11;;;;;;;2.50;0.63;;;18.20;45.90;;;;;;4947110;28;20074;-44
2022/01/19 00:59:38;;;;;;;1.38;0.50;;;18.20;45.90;;;;;;4947960;28;20051;-45
2022/01/19 01:02:05;;;;;;;0.77;0.30;;;18.20;46.00;;;;;;4931257;29;20035;-42
2022/01/19 01:04:34;;;;;;;1.40;1.30;;;18.20;46.60;;;;;;4947390;28;20627;-42
2022/01/19 01:07:01;;;;;;;2.50;0.40;;;18.20;46.00;;;;;;4947191;28;20065;-45
2022/01/19 01:09:28;;;;;;;1.08;0.30;;;18.20;46.00;;;;;;4949952;28;20059;-42
2022/01/19 01:12:02;;;;;;;0.40;0.35;;;18.20;46.10;;;;;;4946979;28;20468;-42
2022/01/19 01:19:57;;;;;;;4.05;0.90;;;18.10;46.10;;;;;;4943504;28;20126;-43
2022/01/19 01:22:24;;;;;;;0.25;0.20;;;18.10;46.20;;;;;;4946529;28;20160;-42
2022/01/19 01:24:51;;;;;;;0.70;0.20;;;18.10;46.30;;;;;;4949557;29;20047;-43
2022/01/19 01:27:20;;;;;;;0.50;0.38;;;18.10;46.40;;;;;;4945672;28;20043;-42
2022/01/19 01:29:48;;;;;;;1.05;0.30;;;18.20;46.50;;;;;;4947730;28;20103;-46
2022/01/19 01:32:15;;;;;;;3.95;0.40;;;18.20;46.50;;;;;;4931063;29;20049;-43
2022/01/19 01:34:43;;;;;;;0.50;0.40;;;18.10;46.50;;;;;;4948175;28;20039;-45
2022/01/19 01:37:10;;;;;;;0.90;0.43;;;18.10;46.50;;;;;;4946519;28;20050;-40
2022/01/19 01:39:37;;;;;;;0.52;0.30;;;18.20;46.50;;;;;;4949282;29;20057;-40
2022/01/19 01:42:09;;;;;;;0.73;0.45;;;18.10;46.40;;;;;;4930788;29;20055;-42
2022/01/19 01:44:39;;;;;;;0.70;0.30;;;18.20;46.50;;;;;;4945757;28;20126;-43
2022/01/19 01:47:08;;;;;;;1.25;0.20;;;18.20;46.50;;;;;;4945364;28;20043;-41
2022/01/19 01:49:47;;;;;;;0.95;0.20;;;18.10;46.50;;;;;;4947825;28;20515;-43
2022/01/19 01:55:05;;;;;;;0.95;0.57;;;18.20;46.50;;;;;;4945536;28;20035;-41
2022/01/19 01:57:32;;;;;;;1.48;0.38;;;18.10;46.50;;;;;;4947512;29;20042;-42
2022/01/19 02:00:00;;;;;;;0.70;0.10;;;18.10;46.50;;;;;;4943939;28;20051;-42
2022/01/19 02:02:43;;;;;;;0.30;0.28;;;18.10;46.50;;;;;;4943785;28;20401;-44
2022/01/19 02:05:13;;;;;;;1.05;0.68;;;18.10;46.40;;;;;;4946035;28;20130;-41
2022/01/19 02:07:46;;;;;;;0.98;0.50;;;18.10;46.40;;;;;;4944648;28;20062;-43
2022/01/19 02:10:31;;;;;;;2.47;0.20;;;18.10;46.50;;;;;;4946303;28;20380;-43
2022/01/19 02:15:58;;;;;;;1.23;0.50;;;18.10;47.10;;;;;;4947410;29;20126;-42
2022/01/19 02:23:55;;;;;;;1.58;0.47;;;18.10;46.50;;;;;;4945132;28;20528;-40
2022/01/19 02:26:28;;;;;;;1.25;0.30;;;18.10;46.40;;;;;;4946752;28;20043;-41
2022/01/19 02:29:00;;;;;;;0.57;0.20;;;18.10;46.40;;;;;;4946001;28;20141;-41
2022/01/19 02:31:51;;;;;;;2.15;0.65;;;18.10;46.40;;;;;;4945794;28;20043;-41
2022/01/19 02:40:12;;;;;;;0.30;0.22;;;18.10;46.40;;;;;;4947784;29;20074;-43
2022/01/19 02:42:52;;;;;;;0.47;0.30;;;18.10;46.40;;;;;;4947949;29;20060;-44
2022/01/19 02:50:50;;;;;;;1.13;0.30;;;18.10;46.40;;;;;;4943323;28;20101;-43
2022/01/19 02:53:18;;;;;;;2.45;0.38;;;18.10;46.50;;;;;;4944623;28;20032;-43
2022/01/19 02:55:46;;;;;;;0.38;0.32;;;18.00;46.50;;;;;;4944986;28;20039;-44
2022/01/19 02:58:18;;;;;;;3.42;0.40;;;18.00;46.40;;;;;;4929399;28;21106;-42
2022/01/19 03:09:04;;;;;;;0.93;0.25;;;18.00;46.60;;;;;;4886619;29;20064;-47
2022/01/19 03:11:31;;;;;;;0.95;0.50;;;18.10;46.50;;;;;;4879063;29;20056;-43
2022/01/19 03:13:58;;;;;;;0.60;0.30;;;18.00;46.50;;;;;;4879781;29;20505;-47
2022/01/19 03:16:26;;;;;;;1.60;0.40;;;18.00;46.50;;;;;;4881386;29;20044;-44
2022/01/19 03:18:53;;;;;;;0.63;0.20;;;18.00;46.50;;;;;;4887513;29;20056;-46
2022/01/19 03:21:20;;;;;;;0.50;0.35;;;18.10;46.50;;;;;;4884992;29;20148;-41
2022/01/19 03:23:48;;;;;;;1.85;0.20;;;18.00;46.40;;;;;;4886788;29;20084;-44
2022/01/19 03:26:16;;;;;;;1.92;0.43;;;18.10;46.50;;;;;;4886357;29;20037;-41
2022/01/19 03:29:16;;;;;;;0.82;0.60;;;18.00;46.40;;;;;;4845690;29;20057;-43
2022/01/19 03:31:43;;;;;;;0.73;0.47;;;18.00;46.40;;;;;;4825094;29;20117;-44
2022/01/19 03:34:12;;;;;;;1.17;0.30;;;18.00;46.40;;;;;;4820608;29;20438;-41
2022/01/19 03:36:39;;;;;;;0.88;0.40;;;18.00;46.40;;;;;;4829711;29;20205;-47
2022/01/19 03:39:07;;;;;;;0.70;0.32;;;18.00;46.40;;;;;;4822633;29;20175;-40
2022/01/19 03:41:35;;;;;;;1.27;0.77;;;18.00;46.40;;;;;;4837619;29;20054;-40
2022/01/19 03:44:03;;;;;;;0.75;0.25;;;18.00;46.30;;;;;;4894318;29;20058;-41
2022/01/19 03:46:33;;;;;;;1.50;0.22;;;18.00;46.30;;;;;;4904919;29;20048;-41
2022/01/19 03:49:10;;;;;;;0.90;0.30;;;18.00;46.30;;;;;;4893680;29;20072;-41
2022/01/19 03:51:38;;;;;;;1.17;0.68;;;18.00;46.40;;;;;;4909948;29;20044;-41
2022/01/19 03:54:05;;;;;;;0.40;0.30;;;18.00;46.40;;;;;;4908889;29;20048;-41
2022/01/19 03:56:32;;;;;;;1.33;0.30;;;18.00;46.40;;;;;;4908990;29;20056;-41
2022/01/19 03:59:01;;;;;;;0.57;0.22;;;18.00;46.40;;;;;;4892741;29;20080;-40
2022/01/19 04:01:28;;;;;;;0.20;0.20;;;18.00;46.40;;;;;;4898232;29;20053;-44
2022/01/19 04:04:23;;;;;;;0.20;0.20;;;18.00;46.40;;;;;;4911620;28;20131;-43
2022/01/19 04:06:58;;;;;;;1.17;0.40;;;18.00;46.40;;;;;;4950604;29;20058;-43
2022/01/19 04:09:26;;;;;;;1.27;0.47;;;17.90;46.30;;;;;;4948140;28;20519;-42
2022/01/19 04:11:55;;;;;;;0.45;0.43;;;18.00;46.40;;;;;;4947545;28;20040;-44
2022/01/19 04:14:25;;;;;;;0.57;0.30;;;18.00;46.40;;;;;;4946935;28;20054;-42
2022/01/19 04:16:55;;;;;;;3.78;1.42;;;18.00;46.40;;;;;;4932098;29;20512;-45
2022/01/19 04:19:27;;;;;;;1.48;0.60;;;17.90;46.40;;;;;;4946181;28;20047;-43
2022/01/19 04:22:02;;;;;;;2.00;0.40;;;18.00;46.50;;;;;;4946748;28;20047;-45
2022/01/19 04:24:32;;;;;;;1.80;0.63;;;17.90;46.50;;;;;;4948921;29;20043;-44
2022/01/19 04:29:56;;;;;;;0.70;0.50;;;17.90;46.40;;;;;;4923657;28;20059;-43
2022/01/19 04:32:30;;;;;;;1.05;0.20;;;17.90;46.40;;;;;;4947155;28;20141;-47
2022/01/19 04:34:59;;;;;;;0.57;0.20;;;17.90;46.40;;;;;;4945428;28;20039;-42
2022/01/19 04:37:38;;;;;;;1.83;0.40;;;17.90;46.40;;;;;;4947158;28;20039;-41
2022/01/19 04:46:05;;;;;;;0.35;0.20;;;17.90;46.40;;;;;;4947864;29;20047;-45
2022/01/19 04:54:35;;;;;;;0.30;0.20;;;17.90;46.30;;;;;;4946696;28;20039;-41
2022/01/19 05:03:09;;;;;;;2.25;0.20;;;17.90;46.40;;;;;;4946771;28;20451;-44
2022/01/19 05:06:12;;;;;;;;;;;17.80;46.50;;;;;;4937237;29;20051;-42
2022/01/19 05:14:22;;;;;;;1.60;0.28;;;17.80;46.80;;;;;;4907026;29;20084;-42
2022/01/19 05:16:49;;;;;;;1.70;0.60;;;17.80;46.70;;;;;;4891416;29;20048;-48
2022/01/19 05:19:18;;;;;;;2.85;0.35;;;17.80;46.70;;;;;;4907101;29;20147;-46
2022/01/19 05:21:50;;;;;;;0.38;0.28;;;17.80;46.70;;;;;;4906521;29;20044;-43
2022/01/19 05:24:28;;;;;;;0.80;0.60;;;17.80;46.70;;;;;;4908249;29;20048;-42
2022/01/19 05:27:21;;;;;;;0.77;0.40;;;17.90;46.70;;;;;;4908069;29;20175;-41
2022/01/19 05:29:49;;;;;;;1.25;0.60;;;17.80;46.70;;;;;;4906733;29;20055;-42
2022/01/19 05:32:16;;;;;;;0.25;0.20;;;17.80;46.70;;;;;;4906982;29;20048;-42
2022/01/19 05:34:44;;;;;;;1.05;0.40;;;17.90;46.70;;;;;;4906502;29;20060;-43
2022/01/19 05:37:37;;;;;;;0.60;0.30;;;17.80;46.60;;;;;;4906761;29;20076;-43
2022/01/19 05:40:25;;;;;;;0.93;0.35;;;17.80;46.70;;;;;;4831985;29;20070;-46
2022/01/19 05:42:57;;;;;;;1.58;0.40;;;17.80;46.70;;;;;;4833232;29;20082;-41
2022/01/19 05:45:25;;;;;;;2.05;0.50;;;17.80;46.70;;;;;;4850262;29;20200;-43
2022/01/19 05:47:53;;;;;;;1.20;0.50;;;17.80;46.60;;;;;;4866614;29;20053;-43
2022/01/19 05:50:22;;;;;;;0.98;0.35;;;17.80;46.60;;;;;;4868650;29;20045;-43
2022/01/19 05:53:00;;;;;;;0.80;0.80;;;17.90;46.70;;;;;;4869161;29;20041;-40
2022/01/19 05:55:27;;;;;;;1.17;0.50;;;17.80;46.60;;;;;;4869079;29;20056;-45
2022/01/19 05:57:54;;;;;;;1.10;0.20;;;17.90;46.70;;;;;;4869634;29;20056;-44
2022/01/19 06:00:22;;;;;;;1.35;0.40;;;17.80;46.50;;;;;;4868654;29;20053;-46
2022/01/19 06:02:50;;;;;;;0.52;0.30;;;17.90;46.60;;;;;;4867072;29;20059;-46
2022/01/19 06:05:25;;;;;;;0.57;0.40;;;17.90;46.60;;;;;;4867908;29;20157;-42
2022/01/19 06:08:29;;;;;;;2.58;0.40;;;17.80;46.60;;;;;;4813826;29;20191;-42
2022/01/19 06:11:02;;;;;;;0.50;0.50;;;17.80;46.60;;;;;;4813084;29;20548;-42
2022/01/19 06:13:29;;;;;;;0.63;0.38;;;17.80;46.60;;;;;;4814156;29;20057;-44
2022/01/19 06:15:57;;;;;;;0.60;0.40;;;17.90;46.60;;;;;;4814521;29;20397;-45
2022/01/19 06:18:24;;;;;;;1.77;0.52;;;17.90;46.60;;;;;;4873911;29;20067;-44
2022/01/19 06:20:54;;;;;;;0.65;0.20;;;17.80;46.50;;;;;;4871911;29;20056;-45
2022/01/19 06:23:27;;;;;;;0.40;0.35;;;17.90;46.60;;;;;;4871376;29;20509;-45
2022/01/19 06:26:06;;;;;;;0.75;0.30;;;17.90;46.60;;;;;;4871708;29;20057;-45
2022/01/19 06:28:33;;;;;;;1.50;0.57;;;17.90;46.60;;;;;;4872224;29;20104;-43
2022/01/19 06:31:00;;;;;;;1.85;0.50;;;17.80;46.50;;;;;;4872429;29;20048;-45
2022/01/19 06:33:28;;;;;;;0.55;0.55;;;17.90;46.60;;;;;;4887657;29;20048;-42
2022/01/19 06:35:57;;;;;;;1.50;0.50;;;17.90;46.60;;;;;;4874746;29;20879;-42
2022/01/19 06:38:57;;;;;;;2.45;0.50;;;17.90;46.60;;;;;;4889970;29;20127;-42
2022/01/19 06:41:32;;;;;;;0.93;0.43;;;17.80;46.60;;;;;;4885671;29;20045;-42
2022/01/19 06:44:00;;;;;;;1.27;0.50;;;17.80;46.60;;;;;;4872175;29;20072;-42
2022/01/19 06:46:27;;;;;;;0.50;0.50;;;17.80;46.70;;;;;;4928357;28;20077;-42
2022/01/19 06:48:54;;;;;;;2.42;0.52;;;17.80;46.70;;;;;;4945576;28;20051;-43
2022/01/19 06:51:24;;;;;;;0.80;0.60;;;17.80;46.70;;;;;;4930271;29;20046;-42
2022/01/19 06:53:55;;;;;;;1.60;0.70;;;17.90;46.80;;;;;;4944890;28;20491;-41
2022/01/19 06:56:28;;;;;;;3.13;0.50;;;17.90;46.80;;;;;;4929475;29;20047;-42
2022/01/19 06:59:10;;;;;;;1.25;0.60;;;17.80;46.80;;;;;;4944986;28;20105;-45
2022/01/19 07:01:48;;;;;;;1.27;0.60;;;17.80;46.70;;;;;;4929102;29;20046;-42
2022/01/19 07:04:25;;;;;;;2.65;0.60;;;17.80;46.80;;;;;;4942212;28;20536;-44
2022/01/19 07:06:53;;;;;;;1.13;0.75;;;17.80;46.80;;;;;;4946400;28;20069;-45
2022/01/19 07:09:29;;;;;;;1.58;0.70;;;17.80;46.90;;;;;;4946309;28;20063;-44
2022/01/19 07:11:57;;;;;;;1.27;1.10;;;17.80;46.90;;;;;;4929232;29;20047;-42
2022/01/19 07:14:25;;;;;;;0.80;0.70;;;17.80;46.80;;;;;;4929700;29;20056;-42
2022/01/19 07:16:56;;;;;;;0.73;0.52;;;17.80;46.80;;;;;;4932579;29;20599;-43
2022/01/19 07:19:23;;;;;;;0.70;0.57;;;17.80;46.90;;;;;;4948725;28;20035;-43
2022/01/19 07:21:53;;;;;;;1.15;0.70;;;17.80;46.90;;;;;;4948780;28;20114;-41
2022/01/19 07:24:21;;;;;;;2.95;1.05;;;17.80;46.80;;;;;;4952751;28;20051;-41
2022/01/19 07:26:48;;;;;;;19.48;1.15;;;17.80;46.90;;;;;;4954251;28;20145;-43
2022/01/19 07:29:18;;;;;;;1.20;1.08;;;17.80;46.90;;;;;;4952143;28;20047;-43
2022/01/19 07:31:51;;;;;;;3.13;0.47;;;17.80;46.90;;;;;;4953778;28;20043;-42
2022/01/19 07:34:20;;;;;;;1.48;0.93;;;17.80;47.00;;;;;;4931974;28;20038;-42
2022/01/19 07:36:47;;;;;;;0.68;0.60;;;17.80;47.00;;;;;;4956074;28;20055;-46
2022/01/19 07:39:16;;;;;;;2.60;1.08;;;17.80;47.10;;;;;;4956228;28;20190;-42
2022/01/19 07:41:44;;;;;;;1.73;1.17;;;17.80;47.10;;;;;;4950057;28;20039;-45
2022/01/19 07:44:30;;;;;;;1.52;0.80;;;17.80;47.00;;;;;;4946132;28;20047;-47
2022/01/19 07:47:16;;;;;;;5.07;1.05;;;17.80;47.10;;;;;;4946570;28;20035;-41
2022/01/19 07:50:01;;;;;;;2.95;1.65;;;17.80;47.10;;;;;;4949161;28;20043;-42
2022/01/19 07:52:48;;;;;;;1.23;1.00;;;17.80;47.10;;;;;;4945302;28;20039;-42
2022/01/19 07:55:24;;;;;;;1.75;1.52;;;17.80;47.20;;;;;;4946439;29;20322;-43
2022/01/19 07:58:14;;;;;;;2.80;1.33;;;17.80;47.20;;;;;;4936824;28;20725;-41
2022/01/19 08:00:48;;;;;;;3.13;1.00;;;17.80;47.30;;;;;;4946301;29;20049;-45
2022/01/19 08:03:37;;;;;;;2.70;0.75;;;17.80;47.30;;;;;;4932712;29;20042;-42
2022/01/19 08:06:11;;;;;;;6.57;1.25;;;17.80;47.50;;;;;;4929504;29;20046;-45
2022/01/19 08:08:39;;;;;;;5.03;1.77;;;17.80;47.50;;;;;;4930419;29;20146;-63
2022/01/19 08:11:08;;;;;;;6.45;2.40;;;17.80;47.80;;;;;;4947891;28;20047;-61
2022/01/19 08:13:38;;;;;;;6.43;1.30;;;17.80;47.80;;;;;;4948659;28;20047;-56
2022/01/19 08:16:07;;;;;;;5.85;1.83;;;17.80;47.90;;;;;;4945946;28;20460;-57
2022/01/19 08:18:35;;;;;;;6.45;1.27;;;17.80;48.30;;;;;;4950341;29;20495;-57
2022/01/19 08:21:03;;;;;;;4.30;1.52;;;17.80;48.60;;;;;;4950357;28;20035;-57
2022/01/19 08:23:39;;;;;;;5.43;1.48;;;17.80;48.70;;;;;;4932643;29;20043;-54
2022/01/19 08:26:08;;;;;;;3.28;1.75;;;17.80;48.80;;;;;;4946394;28;20071;-53
2022/01/19 08:28:36;;;;;;;2.35;1.30;;;17.80;48.90;;;;;;4950302;28;20047;-55
2022/01/19 08:31:05;;;;;;;4.57;1.65;;;17.80;49.00;;;;;;4929924;28;20047;-54
2022/01/19 08:33:58;;;;;;;4.38;1.48;;;17.80;49.00;;;;;;4945630;28;20055;-58
2022/01/19 08:36:42;;;;;;;3.33;1.35;;;17.80;49.00;;;;;;4946699;29;20449;-54
2022/01/19 08:39:18;;;;;;;9.20;2.00;;;17.80;49.10;;;;;;4949187;28;20071;-65
2022/01/19 08:41:46;;;;;;;4.93;2.03;;;17.80;49.20;;;;;;4945567;28;20415;-64
2022/01/19 08:44:14;;;;;;;3.38;1.92;;;17.80;49.20;;;;;;4945542;28;20075;-53
2022/01/19 08:46:44;;;;;;;4.00;1.90;;;17.80;49.10;;;;;;4926238;29;20106;-58
2022/01/19 08:49:30;;;;;;;7.68;1.90;;;17.80;49.10;;;;;;4944926;28;20043;-61
2022/01/19 08:52:16;;;;;;;3.15;1.92;;;17.80;49.00;;;;;;4945437;28;20077;-61
2022/01/19 08:54:47;;;;;;;5.65;2.22;;;17.80;49.10;;;;;;4949449;29;20047;-51
2022/01/19 08:57:18;;;;;;;4.20;1.40;;;17.80;49.10;;;;;;4949114;28;20062;-53
2022/01/19 08:59:45;;;;;;;5.35;1.83;;;17.90;49.10;;;;;;4947551;28;20039;-62
2022/01/19 09:02:12;;;;;;;12.23;3.13;;;17.90;49.10;;;;;;4947361;28;20058;-56
2022/01/19 09:04:39;;;;;;;7.97;1.83;;;17.90;49.00;;;;;;4946626;28;20078;-57
2022/01/19 09:07:07;;;;;;;4.75;1.42;;;17.90;49.10;;;;;;4948318;28;20134;-56
2022/01/19 09:09:34;;;;;;;7.35;1.67;;;17.90;49.00;;;;;;4948425;28;20685;-54
2022/01/19 09:12:02;;;;;;;4.15;1.80;;;17.90;49.00;;;;;;4947413;28;20054;-66
2022/01/19 09:14:31;;;;;;;12.13;2.33;;;17.90;48.90;;;;;;4947369;28;20439;-68
2022/01/19 09:16:58;;;;;;;4.05;2.15;;;17.90;48.90;;;;;;4946234;28;20046;-64
2022/01/19 09:19:26;;;;;;;10.95;2.30;;;17.90;48.90;;;;;;4945173;28;20071;-63
2022/01/19 09:21:55;;;;;;;6.18;2.83;;;17.80;48.70;;;;;;4948762;28;20046;-64
2022/01/19 09:24:23;;;;;;;8.52;2.50;;;17.90;48.60;;;;;;4948748;28;20129;-64
2022/01/19 09:26:51;;;;;;;3.42;2.65;;;17.80;48.40;;;;;;4947683;28;20050;-64
2022/01/19 09:29:18;;;;;;;3.00;2.05;;;17.90;48.40;;;;;;4945603;28;20035;-65
2022/01/19 09:31:47;;;;;;;3.85;1.77;;;17.90;48.50;;;;;;4947989;28;20431;-58
2022/01/19 09:34:16;;;;;;;6.35;2.97;;;17.90;48.60;;;;;;4948224;28;20095;-63
2022/01/19 09:36:46;;;;;;;4.25;2.63;;;17.80;48.80;;;;;;4949531;28;20051;-59
2022/01/19 09:39:15;;;;;;;12.27;2.35;;;17.80;48.90;;;;;;4947048;28;20046;-60
2022/01/19 09:41:43;;;;;;;7.20;2.22;;;17.90;49.10;;;;;;4945116;28;20046;-54
2022/01/19 09:44:10;;;;;;;6.22;2.35;;;17.90;49.20;;;;;;4946626;28;20774;-67
2022/01/19 09:46:38;;;;;;;5.32;2.50;;;17.90;49.20;;;;;;4945497;28;20046;-69
2022/01/19 09:49:07;;;;;;;5.00;1.85;;;17.90;49.20;;;;;;4946860;28;20049;-56
2022/01/19 09:51:35;;;;;;;5.68;2.53;;;17.90;49.20;;;;;;4948002;29;20046;-58
2022/01/19 09:54:03;;;;;;;6.65;2.30;;;17.90;49.10;;;;;;4947129;28;20066;-62
2022/01/19 09:56:30;;;;;;;6.35;2.22;;;17.90;48.90;;;;;;4944987;28;20039;-59
2022/01/19 09:58:57;;;;;;;6.18;2.75;;;17.90;48.90;;;;;;4946706;28;20039;-57
2022/01/19 10:01:26;;;;;;;7.43;2.67;;;17.90;49.40;;;;;;4946569;28;20543;-57
2022/01/19 10:03:54;;;;;;;5.20;2.63;;;17.90;48.80;;;;;;4946341;29;20047;-62
2022/01/19 10:06:24;;;;;;;9.38;2.13;;;17.90;48.90;;;;;;4946383;28;20039;-61
2022/01/19 10:08:54;;;;;;;6.57;2.60;;;17.90;48.80;;;;;;4941586;28;20059;-58
2022/01/19 10:11:28;;;;;;;3.40;2.35;;;17.90;48.70;;;;;;4943885;28;20129;-69
2022/01/19 10:17:02;;;;;;;7.30;3.55;;;17.90;48.90;;;;;;4943239;28;20048;-55
2022/01/19 10:19:32;;;;;;;8.48;3.55;;;17.90;48.80;;;;;;4947409;28;20055;-67
2022/01/19 10:22:13;;;;;;;6.00;2.33;;;17.90;48.90;;;;;;4947622;28;20074;-50
2022/01/19 10:24:47;;;;;;;3.63;1.40;;;17.90;49.10;;;;;;4947593;28;20044;-67
2022/01/19 10:27:24;;;;;;;7.80;3.15;;;17.90;49.60;;;;;;4944815;28;20040;-61
2022/01/19 10:29:53;;;;;;;6.00;2.60;;;17.90;49.00;;;;;;4943021;28;20039;-68
2022/01/19 10:32:22;;;;;;;5.28;2.63;;;17.90;49.00;;;;;;4945282;28;20130;-66
2022/01/19 10:34:50;;;;;;;5.78;2.45;;;17.90;49.00;;;;;;4947046;28;20515;-68
2022/01/19 10:37:25;;;;;;;5.28;2.72;;;17.90;49.00;;;;;;4947122;28;20063;-69
2022/01/19 10:39:54;;;;;;;4.95;2.30;;;17.90;48.90;;;;;;4948236;29;20047;-60
2022/01/19 10:42:24;;;;;;;3.88;2.20;;;17.90;48.90;;;;;;4947761;28;20051;-69
2022/01/19 10:44:53;;;;;;;4.05;2.67;;;17.90;48.90;;;;;;4946756;28;20039;-70
2022/01/19 10:47:39;;;;;;;5.32;2.78;;;17.90;48.90;;;;;;4946666;28;20040;-69
2022/01/19 10:50:08;;;;;;;4.88;2.65;;;18.00;48.90;;;;;;4941676;28;20043;-72
2022/01/19 10:52:39;;;;;;;3.83;2.22;;;17.90;48.80;;;;;;4941889;28;20590;-73
2022/01/19 10:55:10;;;;;;;5.45;2.78;;;17.90;48.80;;;;;;4947000;28;20047;-74
2022/01/19 10:57:40;;;;;;;5.53;3.30;;;17.90;48.80;;;;;;4946255;29;20051;-75
2022/01/19 11:00:12;;;;;;;4.40;2.40;;;17.90;48.70;;;;;;4946586;28;20756;-70
2022/01/19 11:02:40;;;;;;;6.65;3.15;;;17.90;48.70;;;;;;4945999;28;20157;-72
2022/01/19 11:05:08;;;;;;;7.72;2.10;;;17.90;48.70;;;;;;4944917;28;20045;-72
2022/01/19 11:07:36;;;;;;;4.68;4.22;;;17.90;48.70;;;;;;4945537;28;20528;-73
2022/01/19 11:10:10;;;;;;;7.97;3.03;;;18.00;48.70;;;;;;4946344;28;20055;-61
2022/01/19 11:12:45;;;;;;;5.88;3.20;;;17.90;48.60;;;;;;4948196;28;20062;-55
2022/01/19 11:15:14;;;;;;;4.78;2.85;;;17.90;48.60;;;;;;4946435;28;20054;-57
2022/01/19 11:17:41;;;;;;;3.55;3.10;;;17.90;48.60;;;;;;4945955;28;20058;-58
2022/01/19 11:20:12;;;;;;;6.03;3.20;;;17.90;48.60;;;;;;4946508;28;20032;-57
2022/01/19 11:23:06;;;;;;;5.15;3.53;;;17.90;48.60;;;;;;4946679;29;20066;-59
2022/01/19 11:25:45;;;;;;;3.95;3.20;;;18.00;48.60;;;;;;4947077;28;20102;-59
2022/01/19 11:28:23;;;;;;;5.38;3.20;;;17.90;48.50;;;;;;4946595;28;20050;-60
2022/01/19 11:30:50;;;;;;;5.20;3.90;;;17.90;48.50;;;;;;4947662;28;20044;-56
2022/01/19 11:33:24;;;;;;;3.22;2.83;;;17.90;48.50;;;;;;4944434;28;20044;-57
2022/01/19 11:35:53;;;;;;;12.23;4.22;;;17.90;48.50;;;;;;4943682;28;20047;-69
2022/01/19 11:38:34;;;;;;;13.32;3.25;;;17.90;48.40;;;;;;4946869;28;20063;-67
2022/01/19 11:41:04;;;;;;;11.00;4.18;;;17.90;48.60;;;;;;4947114;28;20526;-67
2022/01/19 11:43:33;;;;;;;8.45;4.47;;;17.90;48.60;;;;;;4947464;28;20047;-70
2022/01/19 11:46:03;;;;;;;7.30;3.92;;;17.90;48.70;;;;;;4946991;28;20053;-71
2022/01/19 11:48:35;;;;;;;12.55;4.15;;;17.90;48.70;;;;;;4947766;28;20162;-67
2022/01/19 11:51:27;;;;;;;8.55;4.60;;;17.90;48.70;;;;;;4946158;28;20062;-65
2022/01/19 11:54:10;;;;;;;4.78;4.07;;;17.90;48.60;;;;;;4942931;28;20051;-65
2022/01/19 11:57:10;;;;;;;14.27;4.05;;;17.90;48.60;;;;;;4938257;28;20047;-69
2022/01/19 12:00:07;;;;;;;3.83;3.40;;;17.90;48.60;;;;;;4946386;28;20047;-68
2022/01/19 12:02:41;;;;;;;6.80;3.20;;;17.90;48.60;;;;;;4948190;28;20087;-69
2022/01/19 12:05:24;;;;;;;5.90;3.40;;;17.90;48.70;;;;;;4949439;28;20099;-68
2022/01/19 12:07:53;;;;;;;5.10;3.50;;;17.90;48.60;;;;;;4949116;28;20069;-69
2022/01/19 12:10:44;;;;;;;8.13;4.10;;;17.90;48.60;;;;;;4948673;28;20535;-69
2022/01/19 12:13:32;;;;;;;6.50;3.30;;;17.90;48.60;;;;;;4948830;28;20077;-72
2022/01/19 12:16:04;;;;;;;4.93;2.67;;;17.90;48.60;;;;;;4949953;28;20047;-69
2022/01/19 12:18:50;;;;;;;4.40;2.67;;;17.90;48.60;;;;;;4950537;28;20158;-57
2022/01/19 12:21:38;;;;;;;8.23;3.95;;;17.90;48.60;;;;;;4947650;28;20039;-60
2022/01/19 12:24:19;;;;;;;5.75;3.08;;;17.90;48.50;;;;;;4948722;28;20070;-59
2022/01/19 12:27:06;;;;;;;5.57;3.35;;;17.90;48.60;;;;;;4945096;28;20508;-58
2022/01/19 12:29:47;;;;;;;7.63;2.80;;;17.90;48.60;;;;;;4948715;28;20447;-57
2022/01/19 12:32:37;;;;;;;5.30;2.75;;;17.90;48.50;;;;;;4948696;28;20054;-55
2022/01/19 12:35:11;;;;;;;3.63;2.22;;;17.90;48.50;;;;;;4943510;28;20070;-62
2022/01/19 12:37:41;;;;;;;4.00;2.75;;;17.90;48.50;;;;;;4948751;28;20094;-67
2022/01/19 12:40:35;;;;;;;3.53;2.95;;;17.90;48.50;;;;;;4949313;28;20039;-56
2022/01/19 12:43:06;;;;;;;4.80;2.35;;;17.90;48.50;;;;;;4946628;28;20579;-63
2022/01/19 12:45:36;;;;;;;6.47;2.20;;;17.90;48.50;;;;;;4946186;29;20577;-64
2022/01/19 12:48:06;;;;;;;2.45;1.73;;;17.90;48.50;;;;;;4948631;28;20055;-63
2022/01/19 12:50:47;;;;;;;3.33;2.15;;;17.90;48.50;;;;;;4944967;28;20099;-65
2022/01/19 12:53:20;;;;;;;5.57;2.30;;;17.90;48.50;;;;;;4948764;28;20567;-53
2022/01/19 12:55:51;;;;;;;4.97;4.03;;;17.90;48.40;;;;;;4945977;28;20039;-71
2022/01/19 12:58:27;;;;;;;3.15;2.03;;;17.90;48.40;;;;;;4948884;28;20043;-68
2022/01/19 13:00:58;;;;;;;4.20;1.90;;;17.90;48.30;;;;;;4948595;29;20043;-71
2022/01/19 13:03:31;;;;;;;6.63;2.30;;;17.90;48.40;;;;;;4949400;28;20044;-76
2022/01/19 13:06:02;;;;;;;3.15;1.95;;;17.90;48.50;;;;;;4946796;28;20947;-74
2022/01/19 13:08:46;;;;;;;5.93;2.45;;;17.90;48.50;;;;;;4948110;28;20051;-69
2022/01/19 13:11:32;;;;;;;4.57;2.00;;;18.00;48.60;;;;;;4941874;28;20272;-70
2022/01/19 13:14:03;;;;;;;1.85;1.75;;;18.00;48.60;;;;;;4948089;28;20067;-75
2022/01/19 13:16:44;;;;;;;1.50;1.33;;;18.00;48.60;;;;;;4947480;28;20071;-60
2022/01/19 13:19:15;;;;;;;2.03;1.58;;;18.00;48.60;;;;;;4947886;28;20043;-63
2022/01/19 13:21:45;;;;;;;4.15;2.55;;;18.00;48.50;;;;;;4950357;29;20043;-66
2022/01/19 13:24:18;;;;;;;3.55;2.03;;;18.00;48.50;;;;;;4947362;28;20053;-73
2022/01/19 13:26:52;;;;;;;3.83;1.83;;;18.00;48.60;;;;;;4942775;28;20045;-70
2022/01/19 13:29:25;;;;;;;3.75;1.33;;;18.00;48.60;;;;;;4942192;28;20051;-69
2022/01/19 13:32:11;;;;;;;1.80;1.48;;;18.00;48.60;;;;;;4948425;28;20869;-75
2022/01/19 13:34:52;;;;;;;2.60;1.65;;;18.00;48.60;;;;;;4944108;28;20101;-68
2022/01/19 13:37:21;;;;;;;1.92;1.35;;;18.00;48.60;;;;;;4947547;28;20047;-67
2022/01/19 13:39:57;;;;;;;4.30;1.65;;;18.00;48.60;;;;;;4949798;29;20462;-77
2022/01/19 13:42:45;;;;;;;1.88;1.05;;;18.00;48.60;;;;;;4951489;28;20043;-72
2022/01/19 13:45:27;;;;;;;2.53;1.35;;;18.00;48.50;;;;;;4948106;28;20039;-68
2022/01/19 13:48:05;;;;;;;2.20;0.88;;;18.00;48.50;;;;;;4948141;28;20130;-70
2022/01/19 13:50:33;;;;;;;1.35;0.98;;;18.00;48.50;;;;;;4945292;28;20044;-76
2022/01/19 13:53:00;;;;;;;3.17;1.40;;;18.00;48.50;;;;;;4947363;28;20040;-71
2022/01/19 13:55:28;;;;;;;1.50;0.98;;;18.00;48.50;;;;;;4947798;28;20102;-72
2022/01/19 13:58:11;;;;;;;2.33;1.30;;;18.00;48.50;;;;;;4948903;28;20574;-67
2022/01/19 14:00:50;;;;;;;1.73;1.13;;;18.00;48.40;;;;;;4947732;29;20046;-61
2022/01/19 14:03:19;;;;;;;2.83;0.98;;;18.00;48.50;;;;;;4946776;28;20054;-60
2022/01/19 14:05:48;;;;;;;2.67;0.95;;;18.00;48.50;;;;;;4929856;29;20047;-66
2022/01/19 14:08:26;;;;;;;4.63;1.05;;;18.00;48.50;;;;;;4947170;28;20047;-66
2022/01/19 14:10:55;;;;;;;1.15;0.55;;;18.00;48.50;;;;;;4947226;28;20039;-62
2022/01/19 14:13:26;;;;;;;1.05;0.88;;;18.00;48.50;;;;;;4946209;28;20150;-60
2022/01/19 14:15:55;;;;;;;1.65;1.27;;;18.00;48.50;;;;;;4948955;29;20145;-63
2022/01/19 14:18:24;;;;;;;1.92;1.30;;;18.00;48.50;;;;;;4945243;28;20054;-63
2022/01/19 14:21:08;;;;;;;1.95;0.55;;;18.00;48.50;;;;;;4929828;29;20057;-59